Time;durP1;ratioP1;P1;durP2;ratioP2;P2;SDS_P1;SDS_P2;PMS_P1;PMS_P2;Temp;Humidity;BMP_temperature;BMP_pressure;BME280_temperature;BME280_humidity;BME280_pressure;Samples;Min_cycle;Max_cycle;Signal;HPM_P1;HPM_P2
2022/05/04 00:01:49;;;;;;;14.00;4.97;;;;;;;12.25;77.93;101444.03;5086151;28;20135;-75
2022/05/04 00:04:15;;;;;;;13.90;4.70;;;;;;;12.19;76.56;101432.50;5088773;28;20460;-77
2022/05/04 00:06:42;;;;;;;16.50;4.70;;;;;;;12.21;77.29;101434.88;5091392;28;20080;-76
2022/05/04 00:09:08;;;;;;;16.08;4.82;;;;;;;12.20;75.77;101427.75;5089997;28;20051;-75
2022/05/04 00:11:35;;;;;;;16.65;5.57;;;;;;;12.17;77.49;101434.09;5104015;28;20142;-75
2022/05/04 00:14:02;;;;;;;16.55;4.85;;;;;;;12.10;78.30;101429.31;5092147;28;20405;-75
2022/05/04 00:16:28;;;;;;;17.40;4.90;;;;;;;12.07;78.25;101429.28;5095556;28;20067;-75
2022/05/04 00:18:55;;;;;;;15.70;5.30;;;;;;;11.99;77.71;101434.03;5096869;28;20530;-77
2022/05/04 00:21:24;;;;;;;13.05;4.82;;;;;;;11.95;79.47;101427.66;5080539;28;20575;-76
2022/05/04 00:23:51;;;;;;;13.93;4.63;;;;;;;11.84;80.48;101426.81;5095010;28;20060;-77
2022/05/04 00:26:17;;;;;;;16.15;5.50;;;;;;;11.82;80.96;101428.38;5087991;28;20131;-76
2022/05/04 00:28:44;;;;;;;15.27;5.70;;;;;;;11.77;80.07;101426.78;5093585;28;20682;-76
2022/05/04 00:31:10;;;;;;;11.45;4.60;;;;;;;11.76;80.22;101421.63;5108009;28;20434;-76
2022/05/04 00:33:37;;;;;;;16.73;5.22;;;;;;;11.73;80.45;101430.72;5103432;28;20492;-76
2022/05/04 00:36:04;;;;;;;19.95;5.03;;;;;;;11.72;80.68;101432.69;5087920;28;20047;-77
2022/05/04 00:38:30;;;;;;;14.02;5.38;;;;;;;11.67;81.03;101421.16;5090791;28;20159;-76
2022/05/04 00:40:56;;;;;;;14.75;5.00;;;;;;;11.60;81.55;101421.91;5099858;28;20057;-76
2022/05/04 00:43:24;;;;;;;17.63;5.28;;;;;;;11.56;80.88;101425.81;5076456;28;20051;-76
2022/05/04 00:45:51;;;;;;;14.88;5.55;;;;;;;11.49;82.43;101431.31;5088319;28;20795;-76
2022/05/04 00:48:18;;;;;;;16.02;5.57;;;;;;;11.42;81.44;101431.28;5089522;28;20059;-76
2022/05/04 00:50:47;;;;;;;17.63;5.78;;;;;;;11.38;82.45;101436.00;5110307;28;20559;-76
2022/05/04 00:53:15;;;;;;;14.68;5.13;;;;;;;11.34;82.50;101424.09;5095389;28;20048;-76
2022/05/04 00:55:42;;;;;;;14.35;4.93;;;;;;;11.30;84.71;101428.84;5106485;27;20569;-76
2022/05/04 01:00:55;;;;;;;15.32;5.32;;;;;;;11.21;84.25;101426.41;5102604;28;20150;-75
2022/05/04 01:03:21;;;;;;;24.58;7.75;;;;;;;11.21;84.35;101428.38;5090510;28;20042;-76
2022/05/04 01:05:48;;;;;;;11.25;5.10;;;;;;;11.15;83.82;101416.84;5107078;28;20043;-75
2022/05/04 01:08:15;;;;;;;13.30;5.00;;;;;;;11.13;84.79;101423.97;5091731;27;20044;-78
2022/05/04 01:10:41;;;;;;;13.65;4.95;;;;;;;11.05;84.22;101423.09;5093388;28;20062;-76
2022/05/04 01:13:08;;;;;;;13.40;5.32;;;;;;;11.06;84.74;101421.91;5095838;28;20126;-76
2022/05/04 01:15:35;;;;;;;15.80;5.13;;;;;;;11.04;84.22;101424.28;5101553;27;20047;-77
2022/05/04 01:18:02;;;;;;;15.23;5.25;;;;;;;11.04;85.01;101429.00;5099248;28;20044;-76
2022/05/04 01:20:28;;;;;;;12.48;5.63;;;;;;;11.00;85.30;101428.97;5091074;28;20504;-75
2022/05/04 01:22:55;;;;;;;15.80;5.40;;;;;;;11.00;85.07;101433.75;5093581;28;20052;-76
2022/05/04 01:25:22;;;;;;;16.70;5.15;;;;;;;10.95;84.90;101431.31;5107482;28;20079;-76
2022/05/04 01:27:49;;;;;;;11.95;5.20;;;;;;;10.91;86.16;101425.75;5095180;28;20127;-76
2022/05/04 01:30:15;;;;;;;14.60;5.47;;;;;;;10.87;85.04;101422.13;5091978;28;20040;-77
2022/05/04 01:32:42;;;;;;;14.85;5.32;;;;;;;10.86;86.20;101425.31;5103738;28;20063;-76
2022/05/04 01:35:09;;;;;;;15.73;5.45;;;;;;;10.80;86.79;101424.06;5094083;28;20155;-76
2022/05/04 01:37:35;;;;;;;14.75;5.30;;;;;;;10.73;87.53;101415.69;5073093;28;20040;-76
2022/05/04 01:40:03;;;;;;;18.00;5.13;;;;;;;10.74;87.85;101428.34;5095553;28;20047;-75
2022/05/04 01:42:29;;;;;;;14.38;5.40;;;;;;;10.64;88.52;101423.50;5107504;28;20054;-76
2022/05/04 01:44:56;;;;;;;13.88;5.38;;;;;;;10.62;88.14;101432.19;5084123;28;20150;-75
2022/05/04 01:47:23;;;;;;;13.50;5.53;;;;;;;10.60;87.82;101431.78;5106047;28;20130;-78
2022/05/04 01:49:49;;;;;;;13.70;5.13;;;;;;;10.59;87.27;101430.19;5107170;28;20052;-75
2022/05/04 01:52:16;;;;;;;14.27;5.78;;;;;;;10.56;87.98;101428.16;5082729;28;20056;-76
2022/05/04 01:54:43;;;;;;;15.40;5.72;;;;;;;10.57;87.93;101436.09;5090651;28;20588;-74
2022/05/04 01:57:09;;;;;;;16.65;5.93;;;;;;;10.56;87.15;101428.16;5102198;28;20469;-76
2022/05/04 01:59:36;;;;;;;16.13;5.35;;;;;;;10.59;87.46;101429.41;5101367;28;20062;-76
2022/05/04 02:02:06;;;;;;;13.02;5.00;;;;;;;10.53;88.89;101432.50;5104241;28;20052;-75
2022/05/04 02:04:33;;;;;;;20.58;6.50;;;;;;;10.49;88.20;101428.91;5091990;28;20056;-77
2022/05/04 02:07:00;;;;;;;15.82;6.15;;;;;;;10.47;87.88;101431.25;5090829;28;20147;-76
2022/05/04 02:09:28;;;;;;;18.30;6.22;;;;;;;10.45;88.55;101424.50;5103425;27;20496;-75
2022/05/04 02:11:54;;;;;;;16.00;5.82;;;;;;;10.41;89.22;101424.47;5097953;28;20555;-76
2022/05/04 02:14:21;;;;;;;15.25;5.32;;;;;;;10.42;88.94;101426.06;5099854;28;20052;-75
2022/05/04 02:16:47;;;;;;;15.38;5.35;;;;;;;10.42;88.63;101434.38;5097376;28;20058;-77
2022/05/04 02:19:14;;;;;;;16.63;5.78;;;;;;;10.42;88.94;101428.03;5090071;28;20059;-76
2022/05/04 02:21:40;;;;;;;18.45;6.30;;;;;;;10.40;87.92;101435.91;5080428;28;20051;-76
2022/05/04 02:24:08;;;;;;;16.27;5.72;;;;;;;10.37;87.97;101429.16;5095659;28;20126;-77
2022/05/04 02:26:35;;;;;;;15.00;5.55;;;;;;;10.37;87.38;101431.91;5082304;28;20523;-76
2022/05/04 02:29:01;;;;;;;13.85;5.57;;;;;;;10.34;89.13;101435.47;5093772;28;20079;-76
2022/05/04 02:31:28;;;;;;;18.17;6.05;;;;;;;10.26;89.66;101431.00;5089671;28;20472;-76
2022/05/04 02:33:54;;;;;;;18.85;5.88;;;;;;;10.27;89.35;101427.06;5090099;28;20541;-76
2022/05/04 02:39:06;;;;;;;15.18;6.10;;;;;;;10.24;89.31;101422.31;5100129;28;20052;-75
2022/05/04 02:41:33;;;;;;;16.98;5.70;;;;;;;10.23;88.98;101420.69;5082634;28;20108;-75
2022/05/04 02:44:02;;;;;;;16.50;5.95;;;;;;;10.25;90.48;101425.84;5098858;28;20039;-77
2022/05/04 02:46:30;;;;;;;16.67;5.53;;;;;;;10.24;90.27;101430.59;5106561;28;20142;-76
2022/05/04 02:48:57;;;;;;;23.52;6.63;;;;;;;10.22;90.05;101432.13;5102617;28;20039;-77
2022/05/04 02:51:24;;;;;;;21.08;6.32;;;;;;;10.18;90.19;101434.88;5107026;28;20100;-76
2022/05/04 02:53:51;;;;;;;15.70;5.38;;;;;;;10.10;89.60;101426.88;5092896;28;20054;-77
2022/05/04 02:56:17;;;;;;;17.13;6.32;;;;;;;10.05;90.38;101427.16;5104179;27;20047;-78
2022/05/04 02:58:45;;;;;;;16.00;5.90;;;;;;;10.01;91.35;101421.59;5101441;28;20104;-78
2022/05/04 03:04:04;;;;;;;20.10;6.60;;;;;;;10.03;91.27;101422.00;5089653;28;20100;-77
2022/05/04 03:06:31;;;;;;;14.60;5.72;;;;;;;9.97;91.85;101419.97;5096914;28;20053;-75
2022/05/04 03:08:57;;;;;;;20.98;6.07;;;;;;;9.96;91.83;101416.41;5104830;28;20174;-76
2022/05/04 03:14:09;;;;;;;15.98;6.00;;;;;;;9.93;92.88;101410.84;5101393;28;20504;-76
2022/05/04 03:16:36;;;;;;;17.90;6.13;;;;;;;9.88;92.06;101409.19;5099401;28;20079;-75
2022/05/04 03:19:04;;;;;;;20.40;6.75;;;;;;;9.83;92.11;101417.81;5089262;28;20048;-78
2022/05/04 03:21:31;;;;;;;19.80;6.28;;;;;;;9.79;93.17;101414.19;5077407;28;20149;-75
2022/05/04 03:23:58;;;;;;;22.13;5.93;;;;;;;9.80;92.94;101412.25;5095958;28;20066;-75
2022/05/04 03:26:24;;;;;;;19.58;6.88;;;;;;;9.76;94.36;101420.47;5071756;28;20058;-75
2022/05/04 03:28:51;;;;;;;16.63;6.18;;;;;;;9.72;93.71;101411.34;5088907;28;20044;-75
2022/05/04 03:31:18;;;;;;;17.90;6.10;;;;;;;9.76;93.52;101416.94;5097338;28;20052;-76
2022/05/04 03:33:45;;;;;;;18.55;5.68;;;;;;;9.74;93.77;101422.84;5082471;28;20063;-76
2022/05/04 03:36:12;;;;;;;14.98;6.43;;;;;;;9.71;94.18;101418.06;5101809;28;20131;-75
2022/05/04 03:38:38;;;;;;;15.68;6.43;;;;;;;9.66;94.29;101412.84;5100746;28;20036;-75
2022/05/04 03:41:05;;;;;;;18.33;5.90;;;;;;;9.62;94.89;101406.47;5098081;28;20062;-76
2022/05/04 03:43:32;;;;;;;19.13;6.50;;;;;;;9.61;95.25;101415.94;5092138;28;20079;-76
2022/05/04 03:46:19;;;;;;;25.92;8.70;;;;;;;9.60;95.46;101419.88;5093023;28;20051;-75
2022/05/04 03:48:49;;;;;;;24.23;6.72;;;;;;;9.59;95.50;101420.25;5078023;28;20052;-76
2022/05/04 03:51:22;;;;;;;20.85;6.47;;;;;;;9.53;95.89;101421.75;5106879;28;20528;-75
2022/05/04 03:53:51;;;;;;;21.95;8.07;;;;;;;9.54;95.18;101421.38;5095576;28;20044;-76
2022/05/04 03:56:18;;;;;;;19.75;6.78;;;;;;;9.55;95.54;101411.91;5100314;27;20134;-76
2022/05/04 03:58:45;;;;;;;21.52;7.00;;;;;;;9.55;96.09;101419.41;5080348;28;20138;-76
2022/05/04 04:01:13;;;;;;;23.10;7.20;;;;;;;9.53;96.72;101425.31;5103415;28;20070;-77
2022/05/04 04:03:40;;;;;;;20.85;7.15;;;;;;;9.50;95.85;101420.53;5102992;28;20539;-76
2022/05/04 04:06:07;;;;;;;22.38;6.38;;;;;;;9.51;95.81;101421.31;5103352;28;20109;-72
2022/05/04 04:08:33;;;;;;;23.35;7.20;;;;;;;9.51;96.77;101416.59;5081005;28;20075;-73
2022/05/04 04:11:00;;;;;;;19.88;6.40;;;;;;;9.51;95.95;101419.34;5099607;28;20063;-74
2022/05/04 04:13:27;;;;;;;21.13;6.82;;;;;;;9.54;96.54;101421.38;5082393;28;20051;-73
2022/05/04 04:15:54;;;;;;;27.58;7.28;;;;;;;9.55;96.22;101416.66;5100859;28;20069;-74
2022/05/04 04:18:22;;;;;;;22.00;6.72;;;;;;;9.53;95.85;101418.97;5083716;28;20039;-72
2022/05/04 04:23:34;;;;;;;26.08;8.10;;;;;;;9.52;96.71;101429.22;5096080;28;20081;-73
2022/05/04 04:26:03;;;;;;;29.25;7.78;;;;;;;9.50;97.13;101423.28;5104799;28;20134;-71
2022/05/04 04:28:31;;;;;;;21.92;7.68;;;;;;;9.48;97.34;101417.31;5098895;28;20134;-74
2022/05/04 04:30:57;;;;;;;26.77;7.57;;;;;;;9.50;97.05;101415.00;5095083;28;20061;-73
2022/05/04 04:33:26;;;;;;;25.88;7.47;;;;;;;9.50;98.90;101420.53;5093394;28;20412;-74
2022/05/04 04:35:53;;;;;;;20.35;7.47;;;;;;;9.52;97.87;101429.22;5087892;28;20056;-74
2022/05/04 04:38:20;;;;;;;21.08;7.93;;;;;;;9.53;98.20;101425.31;5088686;28;20135;-72
2022/05/04 04:40:47;;;;;;;22.50;7.00;;;;;;;9.56;97.65;101426.53;5071809;28;20544;-74
2022/05/04 04:43:14;;;;;;;20.23;7.18;;;;;;;9.58;97.38;101427.72;5084175;28;20710;-72
2022/05/04 04:45:44;;;;;;;24.23;7.80;;;;;;;9.61;96.96;101421.47;5100658;28;20539;-73
2022/05/04 04:48:11;;;;;;;24.25;7.60;;;;;;;9.60;97.85;101436.47;5102181;28;20143;-71
2022/05/04 04:50:38;;;;;;;22.90;7.68;;;;;;;9.58;97.26;101433.25;5105154;28;20130;-72
2022/05/04 04:53:05;;;;;;;25.83;9.13;;;;;;;9.59;98.05;101439.59;5082020;28;20055;-72
2022/05/04 04:55:32;;;;;;;22.85;9.10;;;;;;;9.59;98.06;101434.06;5102356;28;20052;-74
2022/05/04 04:57:58;;;;;;;24.70;9.25;;;;;;;9.61;97.96;101438.03;5100210;28;20047;-72
2022/05/04 05:00:25;;;;;;;20.80;8.25;;;;;;;9.61;97.44;101443.56;5070388;28;20662;-73
2022/05/04 05:02:51;;;;;;;25.50;8.30;;;;;;;9.62;97.41;101445.16;5092434;28;20093;-75
2022/05/04 05:05:18;;;;;;;26.13;9.25;;;;;;;9.67;96.78;101449.56;5071418;28;20458;-73
2022/05/04 05:07:45;;;;;;;21.23;8.20;;;;;;;9.69;97.62;101450.78;5090021;28;20048;-73
2022/05/04 05:10:11;;;;;;;23.45;8.25;;;;;;;9.75;97.31;101440.19;5104765;28;20070;-74
2022/05/04 05:12:38;;;;;;;24.85;8.60;;;;;;;9.80;96.35;101437.13;5099203;28;20136;-73
2022/05/04 05:17:50;;;;;;;23.15;9.63;;;;;;;9.85;96.05;101447.84;5105573;28;20098;-73
2022/05/04 05:20:17;;;;;;;21.90;7.93;;;;;;;9.89;95.52;101443.94;5102810;28;20059;-72
2022/05/04 05:22:44;;;;;;;23.98;8.95;;;;;;;9.96;95.36;101451.56;5105532;28;20123;-72
2022/05/04 05:25:10;;;;;;;24.30;8.25;;;;;;;10.01;95.22;101457.53;5088251;28;20052;-72
2022/05/04 05:27:37;;;;;;;24.85;7.90;;;;;;;9.98;95.11;101440.91;5073322;28;20052;-72
2022/05/04 05:30:04;;;;;;;22.70;7.70;;;;;;;10.02;94.97;101437.00;5089822;28;20522;-72
2022/05/04 05:32:31;;;;;;;22.88;8.43;;;;;;;10.03;94.62;101441.38;5095924;28;20139;-72
2022/05/04 05:34:57;;;;;;;21.35;8.05;;;;;;;10.04;94.94;101445.75;5098654;28;20504;-71
2022/05/04 05:37:24;;;;;;;22.65;9.15;;;;;;;10.11;94.42;101443.09;5096947;28;20071;-73
2022/05/04 05:39:51;;;;;;;26.48;9.35;;;;;;;10.12;94.51;101430.03;5098603;28;20142;-73
2022/05/04 05:42:18;;;;;;;24.50;8.23;;;;;;;10.21;94.75;101438.84;5092889;28;20065;-71
2022/05/04 05:44:44;;;;;;;25.65;8.15;;;;;;;10.17;93.98;101433.25;5089604;28;20134;-73
2022/05/04 05:47:13;;;;;;;24.13;8.23;;;;;;;10.28;94.29;101441.69;5097624;28;20626;-73
2022/05/04 05:49:39;;;;;;;27.58;8.52;;;;;;;10.32;93.98;101439.75;5110793;28;20044;-72
2022/05/04 05:52:09;;;;;;;23.48;8.52;;;;;;;10.33;93.52;101439.38;5103814;28;20491;-72
2022/05/04 05:54:36;;;;;;;19.73;7.60;;;;;;;10.39;93.85;101439.84;5099584;28;20075;-72
2022/05/04 05:57:03;;;;;;;25.73;7.25;;;;;;;10.43;93.04;101452.53;5084882;28;20420;-75
2022/05/04 05:59:29;;;;;;;25.63;7.43;;;;;;;10.51;92.83;101447.88;5099959;28;20162;-73
2022/05/04 06:01:56;;;;;;;21.48;7.38;;;;;;;10.52;92.47;101447.50;5105888;28;20075;-72
2022/05/04 06:04:22;;;;;;;20.88;6.97;;;;;;;10.56;92.21;101439.22;5107787;28;20814;-72
2022/05/04 06:06:49;;;;;;;21.33;6.70;;;;;;;10.67;91.78;101447.66;5092015;28;20048;-72
2022/05/04 06:09:16;;;;;;;19.50;6.63;;;;;;;10.69;91.00;101442.56;5103954;28;20181;-72
2022/05/04 06:11:42;;;;;;;25.63;7.47;;;;;;;10.73;90.69;101448.91;5088438;28;20052;-73
2022/05/04 06:14:09;;;;;;;29.00;8.13;;;;;;;10.80;90.61;101446.22;5100295;28;20048;-74
2022/05/04 06:16:35;;;;;;;25.88;7.88;;;;;;;10.88;90.06;101442.31;5099831;28;20040;-76
2022/05/04 06:19:02;;;;;;;15.70;6.47;;;;;;;10.96;90.09;101446.72;5087505;28;20585;-74
2022/05/04 06:21:28;;;;;;;25.90;7.93;;;;;;;10.99;89.25;101443.19;5100967;28;20474;-73
2022/05/04 06:23:55;;;;;;;21.15;7.25;;;;;;;11.01;88.61;101438.09;5099551;28;20052;-76
2022/05/04 06:26:23;;;;;;;24.42;8.27;;;;;;;11.08;88.59;101440.91;5099223;28;20073;-75
2022/05/04 06:28:49;;;;;;;25.90;7.72;;;;;;;11.15;88.94;101436.25;5104763;28;20477;-76
2022/05/04 06:34:07;;;;;;;29.02;7.93;;;;;;;11.37;88.19;101437.97;5093336;28;20127;-76
2022/05/04 06:36:34;;;;;;;18.48;7.00;;;;;;;11.44;87.41;101440.78;5095922;28;20043;-77
2022/05/04 06:39:01;;;;;;;21.75;6.90;;;;;;;11.50;86.68;101452.31;5104706;28;20949;-74
2022/05/04 06:41:28;;;;;;;20.13;6.57;;;;;;;11.53;86.31;101451.53;5083863;28;20401;-75
2022/05/04 06:43:54;;;;;;;22.95;6.90;;;;;;;11.58;85.67;101446.41;5104407;28;20573;-74
2022/05/04 06:46:21;;;;;;;28.83;8.00;;;;;;;11.57;85.59;101455.13;5102473;28;20142;-76
2022/05/04 06:48:48;;;;;;;19.63;6.43;;;;;;;11.57;85.55;101450.38;5105401;27;20651;-74
2022/05/04 06:51:14;;;;;;;22.17;7.60;;;;;;;11.66;85.39;101448.09;5096346;28;20105;-73
2022/05/04 06:53:42;;;;;;;25.98;8.32;;;;;;;11.71;84.71;101458.03;5100611;28;20071;-74
2022/05/04 06:56:29;;;;;;;25.05;8.07;;;;;;;11.76;84.46;101458.47;5093086;28;20051;-75
2022/05/04 06:58:56;;;;;;;19.95;7.35;;;;;;;11.77;83.70;101451.72;5094236;27;20042;-76
2022/05/04 07:01:22;;;;;;;24.02;7.82;;;;;;;11.85;84.21;101460.88;5091243;28;20054;-76
2022/05/04 07:03:49;;;;;;;20.88;7.45;;;;;;;11.90;84.19;101458.53;5092933;28;20067;-74
2022/05/04 07:06:16;;;;;;;23.95;8.38;;;;;;;11.95;83.26;101449.84;5100783;28;20515;-70
2022/05/04 07:08:42;;;;;;;19.65;7.35;;;;;;;12.01;82.73;101447.47;5100920;27;20138;-74
2022/05/04 07:11:10;;;;;;;24.73;9.27;;;;;;;12.12;82.75;101454.66;5083140;28;20124;-73
2022/05/04 07:13:36;;;;;;;26.00;7.50;;;;;;;12.20;82.75;101450.75;5104422;28;20070;-72
2022/05/04 07:16:03;;;;;;;26.55;8.48;;;;;;;12.29;81.91;101447.63;5101343;28;20058;-72
2022/05/04 07:18:29;;;;;;;22.73;7.82;;;;;;;12.36;81.87;101445.63;5097688;28;20477;-72
2022/05/04 07:20:56;;;;;;;21.42;8.10;;;;;;;12.48;81.19;101444.47;5092132;28;20055;-72
2022/05/04 07:23:22;;;;;;;28.00;8.55;;;;;;;12.55;81.16;101444.50;5097460;28;20058;-72
2022/05/04 07:25:49;;;;;;;28.58;9.32;;;;;;;12.69;80.49;101441.78;5102894;28;20079;-71
2022/05/04 07:28:15;;;;;;;23.25;8.48;;;;;;;12.76;79.43;101442.56;5102354;28;20521;-72
2022/05/04 07:30:42;;;;;;;28.05;8.43;;;;;;;12.81;79.27;101438.59;5089323;28;20079;-73
2022/05/04 07:33:08;;;;;;;30.83;10.68;;;;;;;12.88;79.08;101439.41;5089074;28;20044;-72
2022/05/04 07:35:35;;;;;;;24.27;8.45;;;;;;;12.92;78.38;101442.97;5088847;28;20051;-73
2022/05/04 07:38:01;;;;;;;24.88;8.73;;;;;;;13.06;79.48;101445.00;5108130;28;20050;-72
2022/05/04 07:43:13;;;;;;;22.02;8.10;;;;;;;13.14;77.62;101452.16;5095962;28;20054;-72
2022/05/04 07:45:40;;;;;;;19.02;7.43;;;;;;;13.26;77.68;101451.75;5103673;28;20471;-72
2022/05/04 07:48:07;;;;;;;27.13;9.48;;;;;;;13.35;76.73;101460.47;5092938;28;20060;-72
2022/05/04 07:50:34;;;;;;;22.98;8.68;;;;;;;13.44;76.45;101457.31;5080143;28;20111;-71
2022/05/04 07:53:01;;;;;;;21.52;9.02;;;;;;;13.48;75.88;101464.44;5095902;28;20048;-73
2022/05/04 07:55:30;;;;;;;25.50;8.55;;;;;;;13.54;75.75;101468.44;5103678;27;20066;-71
2022/05/04 07:57:57;;;;;;;29.02;10.88;;;;;;;13.47;75.78;101471.22;5078166;28;20097;-72
2022/05/04 08:05:54;;;;;;;24.75;8.63;;;;;;;13.90;75.51;101469.16;5088450;28;20038;-72
2022/05/04 08:08:21;;;;;;;24.98;9.60;;;;;;;13.99;74.59;101472.28;5095734;27;20059;-74
2022/05/04 08:10:48;;;;;;;26.20;10.10;;;;;;;14.10;73.42;101471.03;5099858;28;20101;-75
2022/05/04 08:13:14;;;;;;;19.45;7.72;;;;;;;14.20;72.80;101473.00;5103164;28;20079;-73
2022/05/04 08:15:41;;;;;;;27.15;10.55;;;;;;;14.31;72.29;101468.22;5099094;28;20097;-72
2022/05/04 08:18:08;;;;;;;21.65;9.25;;;;;;;14.28;72.08;101466.22;5094539;28;20687;-72
2022/05/04 08:20:36;;;;;;;20.25;8.63;;;;;;;14.38;71.42;101468.16;5074943;28;20085;-72
2022/05/04 08:23:03;;;;;;;25.40;9.10;;;;;;;14.48;71.45;101461.75;5093270;28;20043;-74
2022/05/04 08:25:31;;;;;;;21.95;9.07;;;;;;;14.56;70.33;101454.16;5088290;28;20182;-72
2022/05/04 08:27:57;;;;;;;28.10;9.70;;;;;;;14.59;70.76;101461.72;5094802;28;20082;-74
2022/05/04 08:30:24;;;;;;;25.95;9.88;;;;;;;14.66;70.31;101459.69;5086214;28;20083;-77
2022/05/04 08:32:51;;;;;;;24.95;10.18;;;;;;;14.74;70.24;101452.88;5097072;28;20679;-75
2022/05/04 08:35:18;;;;;;;25.88;10.60;;;;;;;14.80;70.67;101453.22;5074506;28;20062;-75
2022/05/04 08:37:44;;;;;;;21.80;8.50;;;;;;;14.75;70.44;101448.88;5088362;28;20079;-78
2022/05/04 08:40:12;;;;;;;22.02;9.57;;;;;;;14.90;69.43;101447.59;5084492;28;20085;-73
2022/05/04 08:42:41;;;;;;;21.27;8.85;;;;;;;15.00;69.40;101451.50;5101889;28;20139;-73
2022/05/04 08:45:12;;;;;;;23.85;10.13;;;;;;;15.07;69.51;101446.66;5098505;28;20056;-73
2022/05/04 08:47:40;;;;;;;27.17;9.52;;;;;;;15.21;68.65;101449.31;5096253;28;20048;-73
2022/05/04 08:50:15;;;;;;;21.85;9.38;;;;;;;15.39;68.53;101452.78;5066242;28;20047;-75
2022/05/04 08:52:51;;;;;;;26.52;10.25;;;;;;;15.60;67.85;101462.16;5093315;28;20052;-74
2022/05/04 08:55:18;;;;;;;24.23;10.35;;;;;;;15.63;66.98;101448.19;5080834;28;20056;-72
2022/05/04 08:57:44;;;;;;;25.40;10.68;;;;;;;15.68;66.91;101450.50;5096496;28;20055;-73
2022/05/04 09:00:12;;;;;;;29.33;10.27;;;;;;;15.74;66.83;101443.28;5099713;28;20039;-74
2022/05/04 09:02:38;;;;;;;24.45;9.13;;;;;;;15.86;66.48;101453.13;5098116;28;20099;-72
2022/05/04 09:05:23;;;;;;;25.88;9.48;;;;;;;15.98;65.52;101452.56;5094107;28;20052;-73
2022/05/04 09:07:55;;;;;;;24.08;9.80;;;;;;;16.07;64.45;101455.66;5094822;28;20056;-72
2022/05/04 09:10:32;;;;;;;28.90;9.68;;;;;;;16.03;63.88;101443.75;5100954;28;20056;-73
2022/05/04 09:13:02;;;;;;;24.38;10.55;;;;;;;16.18;64.46;101445.16;5096177;28;20051;-73
2022/05/04 09:15:34;;;;;;;23.17;11.88;;;;;;;16.26;64.61;101436.25;5100336;28;20459;-73
2022/05/04 09:18:06;;;;;;;28.52;11.82;;;;;;;16.43;63.76;101431.69;5095554;28;20054;-74
2022/05/04 09:20:51;;;;;;;22.33;9.18;;;;;;;16.43;63.80;101435.25;5093784;28;20058;-74
2022/05/04 09:23:19;;;;;;;;;;;;;;;16.57;62.76;101434.28;5099845;28;20069;-73
2022/05/04 09:25:55;;;;;;;22.40;9.27;;;;;;;16.73;62.08;101434.44;5096135;27;20049;-73
2022/05/04 09:28:26;;;;;;;21.35;9.27;;;;;;;16.88;63.92;101433.00;5080772;28;20142;-75
2022/05/04 09:30:55;;;;;;;20.95;9.65;;;;;;;16.85;61.37;101436.66;5075614;28;20052;-77
2022/05/04 09:33:31;;;;;;;25.02;8.65;;;;;;;16.56;60.87;101427.91;5094647;27;20071;-73
2022/05/04 09:35:59;;;;;;;26.02;11.27;;;;;;;16.62;61.77;101428.22;5106675;28;20135;-72
2022/05/04 09:46:49;;;;;;;28.38;10.45;;;;;;;17.43;57.46;101422.13;5094282;28;20052;-75
2022/05/04 09:49:19;;;;;;;25.17;10.50;;;;;;;17.52;57.31;101422.38;5098359;28;20044;-72
2022/05/04 09:51:50;;;;;;;23.13;10.18;;;;;;;17.67;58.14;101432.06;5082669;28;20441;-73
2022/05/04 09:54:28;;;;;;;24.95;11.35;;;;;;;17.87;55.39;101430.06;5099611;28;20108;-73
2022/05/04 09:56:57;;;;;;;18.52;8.75;;;;;;;17.80;54.15;101431.03;5108653;27;20134;-72
2022/05/04 09:59:26;;;;;;;27.95;11.20;;;;;;;17.81;55.03;101423.41;5096805;28;20058;-73
2022/05/04 10:01:54;;;;;;;25.48;11.48;;;;;;;17.74;54.53;101432.72;5073187;28;20075;-74
2022/05/04 10:04:25;;;;;;;23.25;11.07;;;;;;;17.93;54.80;101426.34;5094907;28;20043;-74
2022/05/04 10:07:03;;;;;;;27.65;12.07;;;;;;;18.12;54.19;101426.78;5102443;28;20432;-74
2022/05/04 10:09:30;;;;;;;23.17;11.70;;;;;;;18.29;53.84;101436.81;5105643;28;20062;-73
2022/05/04 10:11:59;;;;;;;24.45;12.15;;;;;;;18.18;53.37;101428.63;5094739;28;20086;-73
2022/05/04 10:14:28;;;;;;;31.58;13.45;;;;;;;18.32;53.45;101422.72;5102456;28;20044;-73
2022/05/04 10:17:04;;;;;;;22.70;11.75;;;;;;;18.55;53.00;101431.06;5091051;28;20120;-71
2022/05/04 10:19:39;;;;;;;29.17;12.77;;;;;;;18.92;52.91;101430.59;5082263;28;20518;-73
2022/05/04 10:22:09;;;;;;;25.20;13.02;;;;;;;19.17;51.44;101415.97;5100397;28;20090;-74
2022/05/04 10:24:37;;;;;;;29.10;12.45;;;;;;;19.30;51.19;101414.81;5099949;28;20091;-73
2022/05/04 10:27:20;;;;;;;27.27;11.68;;;;;;;18.98;50.20;101417.63;5101537;28;20091;-73
2022/05/04 10:32:48;;;;;;;25.60;12.27;;;;;;;19.31;50.95;101407.97;5097579;28;20108;-73
2022/05/04 10:35:22;;;;;;;21.55;9.85;;;;;;;19.15;49.21;101422.00;5093155;28;20047;-73
2022/05/04 10:37:58;;;;;;;27.98;12.90;;;;;;;18.95;50.87;101418.50;5107300;27;20052;-75
2022/05/04 10:40:34;;;;;;;29.80;15.13;;;;;;;19.20;49.81;101417.91;5080478;28;20052;-74
2022/05/04 10:43:07;;;;;;;27.83;12.98;;;;;;;19.50;49.39;101409.09;5098074;28;20434;-73
2022/05/04 10:45:41;;;;;;;22.55;10.43;;;;;;;19.75;48.58;101415.59;5093301;28;20086;-71
2022/05/04 10:48:20;;;;;;;29.70;15.90;;;;;;;19.59;48.50;101410.06;5094544;28;20051;-71
2022/05/04 10:50:46;;;;;;;23.00;9.55;;;;;;;19.15;47.94;101415.59;5105365;28;20336;-74
2022/05/04 10:53:26;;;;;;;29.13;14.00;;;;;;;19.57;48.46;101406.09;5096343;28;20083;-77
2022/05/04 10:55:55;;;;;;;24.52;11.30;;;;;;;19.85;48.70;101405.31;5086977;27;20072;-74
2022/05/04 10:58:36;;;;;;;23.92;10.70;;;;;;;20.28;47.12;101402.88;5112085;27;20043;-74
2022/05/04 11:01:12;;;;;;;24.63;11.25;;;;;;;20.62;46.13;101416.28;5097795;28;20047;-74
2022/05/04 11:04:14;;;;;;;27.17;13.65;;;;;;;20.77;45.37;101414.59;5102133;28;20062;-76
2022/05/04 11:06:48;;;;;;;25.33;13.02;;;;;;;20.62;45.32;101408.63;5093993;28;20052;-74
2022/05/04 11:09:26;;;;;;;26.02;13.15;;;;;;;20.50;45.81;101403.00;5086730;28;20042;-74
2022/05/04 11:11:55;;;;;;;30.02;13.13;;;;;;;20.58;45.70;101404.38;5100314;28;20113;-74
2022/05/04 11:14:22;;;;;;;25.13;13.43;;;;;;;20.87;45.85;101402.22;5102131;27;20461;-74
2022/05/04 11:16:51;;;;;;;24.95;13.93;;;;;;;21.13;45.36;101389.72;5092764;28;20135;-73
2022/05/04 11:19:19;;;;;;;24.08;12.35;;;;;;;21.16;43.99;101397.28;5098889;28;20817;-74
2022/05/04 11:21:45;;;;;;;28.35;14.20;;;;;;;20.77;44.80;101395.72;5095851;28;20166;-77
2022/05/04 11:24:13;;;;;;;25.58;13.02;;;;;;;20.99;44.84;101395.84;5108578;27;20047;-75
2022/05/04 11:26:49;;;;;;;26.27;13.63;;;;;;;20.86;44.01;101392.22;5098874;28;20104;-76
2022/05/04 11:29:42;;;;;;;24.42;11.35;;;;;;;21.09;44.07;101395.47;5105898;28;20480;-75
2022/05/04 11:32:08;;;;;;;23.80;12.05;;;;;;;21.14;44.49;101380.03;5096925;28;20127;-75
2022/05/04 11:34:37;;;;;;;23.88;11.68;;;;;;;21.43;44.54;101386.28;5097101;28;20060;-74
2022/05/04 11:37:11;;;;;;;25.38;11.43;;;;;;;21.50;42.84;101375.53;5098471;28;20568;-73
2022/05/04 11:39:39;;;;;;;26.95;12.77;;;;;;;21.60;43.10;101374.34;5097049;28;20143;-74
2022/05/04 11:42:10;;;;;;;22.38;11.43;;;;;;;21.53;42.47;101373.84;5100882;28;20456;-73
2022/05/04 11:44:39;;;;;;;25.73;12.80;;;;;;;21.45;43.61;101378.94;5101116;28;20058;-76
2022/05/04 11:47:08;;;;;;;26.70;13.15;;;;;;;21.23;42.84;101374.50;5083212;28;20043;-73
2022/05/04 11:49:35;;;;;;;30.45;12.50;;;;;;;21.15;42.78;101368.31;5095811;28;20604;-74
2022/05/04 11:52:04;;;;;;;25.10;12.45;;;;;;;21.21;43.24;101376.97;5101603;28;20079;-73
2022/05/04 11:54:31;;;;;;;27.50;12.98;;;;;;;21.37;42.53;101371.19;5087034;28;20089;-74
2022/05/04 11:56:57;;;;;;;24.48;11.60;;;;;;;21.68;42.29;101369.25;5088129;28;20151;-74
2022/05/04 11:59:31;;;;;;;25.50;12.35;;;;;;;21.98;41.90;101365.75;5101964;28;20058;-75
2022/05/04 12:01:59;;;;;;;24.55;11.55;;;;;;;22.31;41.76;101364.06;5079613;28;20760;-73